createdAt,value
2018-06-20T00:01:23.379Z,19.70
2018-06-20T00:03:50.917Z,19.69
2018-06-20T00:06:18.481Z,19.68
2018-06-20T00:08:50.687Z,19.69
2018-06-20T00:11:18.994Z,19.70
2018-06-20T00:13:46.664Z,19.70
2018-06-20T00:16:14.251Z,19.70
2018-06-20T00:18:41.831Z,19.71
2018-06-20T00:21:09.384Z,19.70
2018-06-20T00:23:36.937Z,19.71
2018-06-20T00:26:04.488Z,19.69
2018-06-20T00:28:32.029Z,19.70
2018-06-20T00:30:59.697Z,19.67
2018-06-20T00:33:27.240Z,19.63
2018-06-20T00:35:54.766Z,19.63
2018-06-20T00:38:22.390Z,19.60
2018-06-20T00:40:49.965Z,19.57
2018-06-20T00:43:17.474Z,19.55
2018-06-20T00:45:45.009Z,19.52
2018-06-20T00:48:12.537Z,19.51
2018-06-20T00:50:40.086Z,19.50
2018-06-20T00:53:07.618Z,19.49
2018-06-20T00:55:46.302Z,19.50
2018-06-20T00:58:13.814Z,19.54
2018-06-20T01:00:41.385Z,19.55
2018-06-20T01:03:08.962Z,19.61
2018-06-20T01:05:36.604Z,19.62
2018-06-20T01:08:04.382Z,19.63
2018-06-20T01:10:31.918Z,19.68
2018-06-20T01:12:59.479Z,19.71
2018-06-20T01:15:27.003Z,19.71
2018-06-20T01:17:54.522Z,19.74
2018-06-20T01:20:22.098Z,19.73
2018-06-20T01:22:49.676Z,19.73
2018-06-20T01:25:17.216Z,19.75
2018-06-20T01:27:44.754Z,19.78
2018-06-20T01:30:12.335Z,19.78
2018-06-20T01:32:39.872Z,19.80
2018-06-20T01:35:07.426Z,19.81
2018-06-20T01:37:35.002Z,19.82
2018-06-20T01:40:02.536Z,19.84
2018-06-20T01:42:30.244Z,19.87
2018-06-20T01:44:57.862Z,19.87
2018-06-20T01:47:25.587Z,19.88
2018-06-20T01:49:53.292Z,19.92
2018-06-20T01:52:20.869Z,19.93
2018-06-20T01:54:48.387Z,19.92
2018-06-20T01:57:15.905Z,19.95
2018-06-20T01:59:43.460Z,19.96
2018-06-20T02:02:10.987Z,19.98
2018-06-20T02:04:38.511Z,19.97
2018-06-20T02:07:06.275Z,19.98
2018-06-20T02:09:33.800Z,19.99
2018-06-20T02:12:01.395Z,19.98
2018-06-20T02:14:28.931Z,19.99
2018-06-20T02:16:56.458Z,19.99
2018-06-20T02:19:24.099Z,20.00
2018-06-20T02:21:51.650Z,20.00
2018-06-20T02:24:19.159Z,20.02
2018-06-20T02:26:46.686Z,20.01
2018-06-20T02:29:14.235Z,20.01
2018-06-20T02:31:41.750Z,20.01
2018-06-20T02:34:09.294Z,20.00
2018-06-20T02:36:36.892Z,20.01
2018-06-20T02:39:06.607Z,20.09
2018-06-20T02:41:34.626Z,20.05
2018-06-20T02:44:02.316Z,20.07
2018-06-20T02:46:29.874Z,20.05
2018-06-20T02:48:57.389Z,20.03
2018-06-20T02:51:25.005Z,20.08
2018-06-20T02:53:52.526Z,20.11
2018-06-20T02:56:20.047Z,20.11
2018-06-20T02:58:47.606Z,20.09
2018-06-20T03:01:15.130Z,20.11
2018-06-20T03:03:42.645Z,20.10
2018-06-20T03:06:10.194Z,20.09
2018-06-20T03:08:37.702Z,20.15
2018-06-20T03:11:05.359Z,20.19
2018-06-20T03:13:32.931Z,20.20
2018-06-20T03:16:00.443Z,20.22
2018-06-20T03:18:28.044Z,20.20
2018-06-20T03:20:55.582Z,20.18
2018-06-20T03:23:23.126Z,20.23
2018-06-20T03:25:50.658Z,20.29
2018-06-20T03:28:18.204Z,20.27
2018-06-20T03:30:45.764Z,20.29
2018-06-20T03:33:13.283Z,20.27
2018-06-20T03:35:40.814Z,20.30
2018-06-20T03:38:08.351Z,20.31
2018-06-20T03:40:35.891Z,20.32
2018-06-20T03:43:03.518Z,20.34
2018-06-20T03:45:31.022Z,20.37
2018-06-20T03:47:58.543Z,20.38
2018-06-20T03:50:26.099Z,20.39
2018-06-20T03:52:53.627Z,20.33
2018-06-20T03:55:21.165Z,20.29
2018-06-20T03:57:48.718Z,20.24
2018-06-20T04:00:16.251Z,20.21
2018-06-20T04:02:44.082Z,20.15
2018-06-20T04:05:12.004Z,20.12
2018-06-20T04:07:39.655Z,20.09
2018-06-20T04:10:07.158Z,20.07
2018-06-20T04:12:34.703Z,20.09
2018-06-20T04:15:02.229Z,20.06
2018-06-20T04:17:29.758Z,20.02
2018-06-20T04:19:57.311Z,19.99
2018-06-20T04:22:24.826Z,20.03
2018-06-20T04:24:52.351Z,20.03
2018-06-20T04:27:19.925Z,20.05
2018-06-20T04:29:47.439Z,20.04
2018-06-20T04:32:14.970Z,20.07
2018-06-20T04:34:42.545Z,20.11
2018-06-20T04:37:10.078Z,20.14
2018-06-20T04:39:37.591Z,20.16
2018-06-20T04:42:05.170Z,20.11
2018-06-20T04:44:32.711Z,20.13
2018-06-20T04:47:00.242Z,20.16
2018-06-20T04:49:27.786Z,20.13
2018-06-20T04:51:55.330Z,20.21
2018-06-20T04:54:22.840Z,20.19
2018-06-20T04:56:50.382Z,20.23
2018-06-20T04:59:17.910Z,20.21
2018-06-20T05:01:45.419Z,20.24
2018-06-20T05:04:13.021Z,20.31
2018-06-20T05:06:40.536Z,20.35
2018-06-20T05:09:13.638Z,20.41
2018-06-20T05:11:41.156Z,20.48
2018-06-20T05:14:08.723Z,20.51
2018-06-20T05:16:36.493Z,20.52
2018-06-20T05:19:04.025Z,20.58
2018-06-20T05:21:31.551Z,20.64
2018-06-20T05:23:59.752Z,20.76
2018-06-20T05:26:27.270Z,20.80
2018-06-20T05:28:54.791Z,20.89
2018-06-20T05:31:22.387Z,21.03
2018-06-20T05:33:49.902Z,21.18
2018-06-20T05:36:17.420Z,21.39
2018-06-20T05:38:44.991Z,21.60
2018-06-20T05:41:12.501Z,21.79
2018-06-20T05:43:40.051Z,21.95
2018-06-20T05:46:07.631Z,22.06
2018-06-20T05:48:35.210Z,22.19
2018-06-20T05:51:02.766Z,22.29
2018-06-20T05:53:30.765Z,22.43
2018-06-20T05:55:58.287Z,22.52
2018-06-20T05:58:25.824Z,22.55
2018-06-20T06:00:53.636Z,22.68
2018-06-20T06:03:21.197Z,22.68
2018-06-20T06:06:00.052Z,22.65
2018-06-20T06:08:27.579Z,22.77
2018-06-20T06:10:55.122Z,22.75
2018-06-20T06:13:22.675Z,22.79
2018-06-20T06:15:50.212Z,22.79
2018-06-20T06:18:17.748Z,22.80
2018-06-20T06:20:46.172Z,22.75
2018-06-20T06:23:20.532Z,22.83
2018-06-20T06:25:48.106Z,22.93
2018-06-20T06:28:15.677Z,22.97
2018-06-20T06:30:43.304Z,23.23
2018-06-20T06:33:10.796Z,23.53
2018-06-20T06:35:38.323Z,23.64
2018-06-20T06:38:05.986Z,23.79
2018-06-20T06:40:33.555Z,24.03
2018-06-20T06:43:01.105Z,24.04
2018-06-20T06:45:28.663Z,23.90
2018-06-20T06:47:56.205Z,23.96
2018-06-20T06:50:23.735Z,23.92
2018-06-20T06:52:51.322Z,24.00
2018-06-20T06:55:18.895Z,24.02
2018-06-20T06:57:46.434Z,24.16
2018-06-20T07:00:14.028Z,24.22
2018-06-20T07:02:41.608Z,24.42
2018-06-20T07:05:09.179Z,24.52
2018-06-20T07:07:36.710Z,24.46
2018-06-20T07:10:04.333Z,24.54
2018-06-20T07:12:31.859Z,24.63
2018-06-20T07:14:59.390Z,24.72
2018-06-20T07:17:26.957Z,24.95
2018-06-20T07:19:54.502Z,25.05
2018-06-20T07:22:22.040Z,25.21
2018-06-20T07:24:49.617Z,25.36
2018-06-20T07:27:17.153Z,25.36
2018-06-20T07:29:44.708Z,25.51
2018-06-20T07:32:12.286Z,25.55
2018-06-20T07:34:39.840Z,25.53
2018-06-20T07:37:07.358Z,25.66
2018-06-20T07:39:35.019Z,25.72
2018-06-20T07:42:02.595Z,25.97
2018-06-20T07:44:30.307Z,26.31
2018-06-20T07:46:57.862Z,26.49
2018-06-20T07:49:25.425Z,26.49
2018-06-20T07:51:52.935Z,26.79
2018-06-20T07:54:20.539Z,26.98
2018-06-20T07:56:48.114Z,27.03
2018-06-20T07:59:15.858Z,27.14
2018-06-20T08:02:00.341Z,27.26
2018-06-20T08:04:33.418Z,27.26
2018-06-20T08:07:06.547Z,27.45
2018-06-20T08:09:39.736Z,27.66
2018-06-20T08:12:12.995Z,27.94
2018-06-20T08:14:46.156Z,28.03
2018-06-20T08:17:19.375Z,28.24
2018-06-20T08:19:52.260Z,28.45
2018-06-20T08:22:20.854Z,28.65
2018-06-20T08:24:57.690Z,28.93
2018-06-20T08:27:25.247Z,29.27
2018-06-20T08:29:52.846Z,28.95
2018-06-20T08:32:20.455Z,28.36
2018-06-20T08:34:48.058Z,28.25
2018-06-20T08:37:15.646Z,28.24
2018-06-20T08:39:43.262Z,27.67
2018-06-20T08:42:10.820Z,27.29
2018-06-20T08:44:38.387Z,27.14
2018-06-20T08:47:06.328Z,27.12
2018-06-20T08:49:33.905Z,27.25
2018-06-20T08:52:01.486Z,27.12
2018-06-20T08:54:29.152Z,27.58
2018-06-20T08:56:56.711Z,28.62
2018-06-20T08:59:24.258Z,29.54
2018-06-20T09:01:51.774Z,28.98
2018-06-20T09:04:24.958Z,29.43
2018-06-20T09:06:58.026Z,29.05
2018-06-20T09:09:31.066Z,28.55
2018-06-20T09:12:04.095Z,28.11
2018-06-20T09:14:36.146Z,27.85
2018-06-20T09:17:09.350Z,27.48
2018-06-20T09:19:44.593Z,27.42
2018-06-20T09:22:12.243Z,28.25
2018-06-20T09:24:39.779Z,28.25
2018-06-20T09:27:07.326Z,28.79
2018-06-20T09:29:34.862Z,29.67
2018-06-20T09:32:02.423Z,30.44
2018-06-20T09:34:30.016Z,31.07
2018-06-20T09:36:57.533Z,31.52
2018-06-20T09:39:25.082Z,31.95
2018-06-20T09:41:52.664Z,32.44
2018-06-20T09:44:20.258Z,33.06
2018-06-20T09:46:47.820Z,33.41
2018-06-20T09:49:15.400Z,33.29
2018-06-20T09:51:42.918Z,33.54
2018-06-20T09:54:10.493Z,33.64
2018-06-20T09:56:38.095Z,33.77
2018-06-20T09:59:11.154Z,33.84
2018-06-20T10:01:44.280Z,33.43
2018-06-20T10:04:17.464Z,33.68
2018-06-20T10:06:50.668Z,34.00
2018-06-20T10:09:23.820Z,34.55
2018-06-20T10:11:57.042Z,34.72
2018-06-20T10:14:24.613Z,35.13
2018-06-20T10:16:52.138Z,35.15
2018-06-20T10:19:19.703Z,35.35
2018-06-20T10:21:47.254Z,34.17
2018-06-20T10:24:14.866Z,33.17
2018-06-20T10:26:42.430Z,32.45
2018-06-20T10:29:10.022Z,32.87
2018-06-20T10:31:37.565Z,33.15
2018-06-20T10:34:05.197Z,33.98
2018-06-20T10:36:32.758Z,33.44
2018-06-20T10:39:00.301Z,33.04
2018-06-20T10:41:32.367Z,33.42
2018-06-20T10:43:59.978Z,33.82
2018-06-20T10:47:34.539Z,33.92
2018-06-20T10:50:02.120Z,34.41
2018-06-20T10:52:29.655Z,34.28
2018-06-20T10:54:57.224Z,34.80
2018-06-20T10:57:30.179Z,34.88
2018-06-20T11:00:03.536Z,34.54
2018-06-20T11:02:36.632Z,35.34
2018-06-20T11:05:09.794Z,35.95
2018-06-20T11:07:42.867Z,34.61
2018-06-20T11:10:15.979Z,34.63
2018-06-20T11:12:49.091Z,35.58
2018-06-20T11:15:16.720Z,36.07
2018-06-20T11:17:44.298Z,36.49
2018-06-20T11:20:18.445Z,37.02
2018-06-20T11:22:47.124Z,37.44
2018-06-20T11:25:14.663Z,37.67
2018-06-20T11:27:42.293Z,38.31
2018-06-20T11:30:09.824Z,37.36
2018-06-20T11:32:37.349Z,36.05
2018-06-20T11:35:05.242Z,35.00
2018-06-20T11:37:32.767Z,34.67
2018-06-20T11:40:00.330Z,34.43
2018-06-20T11:42:27.919Z,35.76
2018-06-20T11:44:55.518Z,37.09
2018-06-20T11:47:28.578Z,38.05
2018-06-20T11:49:56.137Z,37.80
2018-06-20T11:52:29.335Z,38.48
2018-06-20T11:55:02.374Z,39.01
2018-06-20T11:57:29.960Z,36.29
2018-06-20T12:00:03.005Z,36.11
2018-06-20T12:02:36.017Z,36.81
2018-06-20T12:05:09.054Z,35.65
2018-06-20T12:07:42.170Z,36.17
2018-06-20T12:10:15.358Z,37.77
2018-06-20T12:12:48.528Z,39.11
2018-06-20T12:15:21.611Z,39.55
2018-06-20T12:17:54.815Z,38.80
2018-06-20T12:20:27.992Z,39.17
2018-06-20T12:23:01.235Z,40.23
2018-06-20T12:25:34.347Z,40.41
2018-06-20T12:28:07.571Z,40.10
2018-06-20T12:30:40.680Z,39.75
2018-06-20T12:33:13.898Z,39.59
2018-06-20T12:35:47.087Z,39.45
2018-06-20T12:38:20.283Z,40.42
2018-06-20T12:40:53.460Z,41.20
2018-06-20T12:43:26.670Z,41.10
2018-06-20T12:45:59.863Z,39.77
2018-06-20T12:48:27.523Z,40.38
2018-06-20T12:50:55.073Z,41.27
2018-06-20T12:53:22.667Z,41.03
2018-06-20T12:55:50.252Z,40.39
2018-06-20T12:58:17.882Z,41.15
2018-06-20T13:00:45.332Z,40.04
2018-06-20T13:03:12.923Z,37.92
2018-06-20T13:05:40.453Z,39.51
2018-06-20T13:08:07.971Z,40.48
2018-06-20T13:10:35.555Z,39.77
2018-06-20T13:13:03.096Z,40.28
2018-06-20T13:15:30.647Z,40.76
2018-06-20T13:17:58.212Z,41.28
2018-06-20T13:20:25.738Z,41.86
2018-06-20T13:22:53.267Z,39.95
2018-06-20T13:25:20.875Z,40.67
2018-06-20T13:27:48.416Z,40.62
2018-06-20T13:30:16.295Z,40.41
2018-06-20T13:32:49.418Z,38.36
2018-06-20T13:35:22.643Z,40.54
2018-06-20T13:37:55.895Z,40.68
2018-06-20T13:40:29.122Z,41.28
2018-06-20T13:43:02.291Z,41.16
2018-06-20T13:45:35.522Z,41.35
2018-06-20T13:48:08.752Z,40.89
2018-06-20T13:50:36.350Z,41.47
2018-06-20T13:53:03.927Z,40.66
2018-06-20T13:55:31.522Z,38.84
2018-06-20T13:57:59.073Z,36.61
2018-06-20T14:00:26.758Z,35.30
2018-06-20T14:02:55.328Z,37.65
2018-06-20T14:05:22.847Z,38.62
2018-06-20T14:07:50.404Z,40.15
2018-06-20T14:10:18.066Z,41.30
2018-06-20T14:12:45.552Z,40.24
2018-06-20T14:15:13.103Z,38.28
2018-06-20T14:17:40.670Z,37.40
2018-06-20T14:20:13.940Z,37.59
2018-06-20T14:22:41.551Z,38.05
2018-06-20T14:25:09.107Z,36.12
2018-06-20T14:27:36.638Z,36.52
2018-06-20T14:30:04.320Z,36.69
2018-06-20T14:32:37.487Z,36.77
2018-06-20T14:35:10.606Z,36.52
2018-06-20T14:37:43.690Z,37.39
2018-06-20T14:40:16.815Z,38.46
2018-06-20T14:42:49.818Z,38.43
2018-06-20T14:45:22.862Z,38.80
2018-06-20T14:47:50.418Z,38.87
2018-06-20T14:50:17.960Z,38.86
2018-06-20T14:52:45.642Z,38.92
2018-06-20T14:55:13.167Z,38.42
2018-06-20T14:57:40.716Z,37.93
2018-06-20T15:00:08.528Z,37.62
2018-06-20T15:02:37.677Z,36.90
2018-06-20T15:05:06.068Z,35.90
2018-06-20T15:07:35.043Z,35.52
2018-06-20T15:10:04.079Z,34.96
2018-06-20T15:12:32.209Z,33.95
2018-06-20T15:14:59.900Z,33.29
2018-06-20T15:17:29.775Z,32.86
2018-06-20T15:19:57.515Z,32.31
2018-06-20T15:22:25.133Z,32.15
2018-06-20T15:24:52.681Z,31.97
2018-06-20T15:27:26.037Z,31.86
2018-06-20T15:29:59.193Z,31.79
2018-06-20T15:32:32.331Z,31.60
2018-06-20T15:35:05.468Z,31.65
2018-06-20T15:38:43.595Z,31.75
2018-06-20T15:41:11.280Z,31.81
2018-06-20T15:43:38.818Z,31.84
2018-06-20T15:46:06.455Z,31.84
2018-06-20T15:48:34.394Z,31.50
2018-06-20T15:51:02.025Z,31.48
2018-06-20T15:53:29.835Z,31.39
2018-06-20T15:55:57.571Z,31.25
2018-06-20T15:58:25.223Z,31.19
2018-06-20T16:00:52.842Z,31.04
2018-06-20T16:03:21.059Z,30.98
2018-06-20T16:05:48.608Z,31.03
2018-06-20T16:08:16.308Z,30.91
2018-06-20T16:10:43.805Z,30.84
2018-06-20T16:13:11.376Z,30.76
2018-06-20T16:15:38.971Z,30.88
2018-06-20T16:18:06.526Z,30.96
2018-06-20T16:20:39.760Z,31.02
2018-06-20T16:23:12.772Z,30.82
2018-06-20T16:25:45.829Z,30.77
2018-06-20T16:28:19.031Z,30.81
2018-06-20T16:30:46.856Z,30.87
2018-06-20T16:33:14.412Z,30.91
2018-06-20T16:35:42.026Z,30.90
2018-06-20T16:38:09.632Z,30.87
2018-06-20T16:40:37.203Z,30.91
2018-06-20T16:43:04.771Z,30.93
2018-06-20T16:45:32.398Z,30.96
2018-06-20T16:47:59.998Z,30.91
2018-06-20T16:50:27.516Z,30.80
2018-06-20T16:52:55.091Z,30.89
2018-06-20T16:55:22.679Z,30.99
2018-06-20T16:57:50.271Z,30.84
2018-06-20T17:00:17.847Z,30.74
2018-06-20T17:02:45.466Z,30.80
2018-06-20T17:05:13.495Z,30.72
2018-06-20T17:07:41.249Z,30.75
2018-06-20T17:10:08.834Z,30.68
2018-06-20T17:12:42.077Z,30.73
2018-06-20T17:15:15.183Z,30.61
2018-06-20T17:17:48.150Z,30.50
2018-06-20T17:20:21.263Z,30.40
2018-06-20T17:22:54.431Z,30.50
2018-06-20T17:25:29.428Z,30.47
2018-06-20T17:27:57.051Z,30.51
2018-06-20T17:30:24.786Z,30.54
2018-06-20T17:32:52.434Z,30.55
2018-06-20T17:35:20.118Z,30.48
2018-06-20T17:37:47.719Z,30.42
2018-06-20T17:40:15.305Z,30.37
2018-06-20T17:42:42.902Z,30.32
2018-06-20T17:45:10.509Z,30.12
2018-06-20T17:47:38.083Z,30.06
2018-06-20T17:50:06.929Z,29.98
2018-06-20T17:52:34.607Z,29.94
2018-06-20T17:55:02.207Z,29.85
2018-06-20T17:57:29.774Z,29.73
2018-06-20T17:59:57.307Z,29.68
2018-06-20T18:02:24.826Z,29.63
2018-06-20T18:04:57.947Z,29.56
2018-06-20T18:07:31.125Z,29.49
2018-06-20T18:10:04.296Z,29.51
2018-06-20T18:13:03.991Z,29.51
2018-06-20T18:15:37.407Z,29.39
2018-06-20T18:18:05.758Z,29.35
2018-06-20T18:20:33.522Z,29.34
2018-06-20T18:23:01.419Z,29.27
2018-06-20T18:25:29.175Z,29.28
2018-06-20T18:27:56.999Z,29.30
2018-06-20T18:30:24.865Z,29.27
2018-06-20T18:32:52.497Z,29.17
2018-06-20T18:35:20.266Z,29.12
2018-06-20T18:37:47.902Z,29.13
2018-06-20T18:40:15.658Z,29.08
2018-06-20T18:42:43.369Z,29.09
2018-06-20T18:45:11.259Z,29.06
2018-06-20T18:47:44.442Z,29.02
2018-06-20T18:50:12.201Z,28.95
2018-06-20T18:52:39.834Z,28.88
2018-06-20T18:55:07.842Z,28.81
2018-06-20T18:57:41.392Z,28.72
2018-06-20T19:00:14.697Z,28.62
2018-06-20T19:02:47.905Z,28.48
2018-06-20T19:05:21.143Z,28.43
2018-06-20T19:07:54.457Z,28.37
2018-06-20T19:10:22.185Z,28.29
2018-06-20T19:12:49.908Z,28.20
2018-06-20T19:15:17.690Z,28.10
2018-06-20T19:17:45.404Z,28.04
2018-06-20T19:20:13.232Z,28.00
2018-06-20T19:22:41.010Z,27.90
2018-06-20T19:25:08.799Z,27.83
2018-06-20T19:27:36.498Z,27.81
2018-06-20T19:30:04.396Z,27.77
2018-06-20T19:32:32.492Z,27.73
2018-06-20T19:35:00.282Z,27.66
2018-06-20T19:37:28.103Z,27.63
2018-06-20T19:39:55.825Z,27.60
2018-06-20T19:42:24.778Z,27.56
2018-06-20T19:44:52.595Z,27.50
2018-06-20T19:47:20.412Z,27.45
2018-06-20T19:49:48.197Z,27.41
2018-06-20T19:52:15.941Z,27.38
2018-06-20T19:54:43.630Z,27.34
2018-06-20T19:57:11.347Z,27.27
2018-06-20T19:59:39.122Z,27.25
2018-06-20T20:02:06.694Z,27.23
2018-06-20T20:04:34.398Z,27.15
2018-06-20T20:07:01.993Z,27.12
2018-06-20T20:09:29.580Z,27.10
2018-06-20T20:11:57.229Z,27.09
2018-06-20T20:14:24.994Z,27.01
2018-06-20T20:16:52.828Z,26.97
2018-06-20T20:19:20.463Z,26.90
2018-06-20T20:21:48.065Z,26.93
2018-06-20T20:24:15.804Z,26.86
2018-06-20T20:26:43.364Z,26.77
2018-06-20T20:29:10.953Z,26.82
2018-06-20T20:31:38.726Z,26.77
2018-06-20T20:34:06.287Z,26.70
2018-06-20T20:36:34.039Z,26.64
2018-06-20T20:39:02.057Z,26.58
2018-06-20T20:41:29.655Z,26.56
2018-06-20T20:43:57.363Z,26.58
2018-06-20T20:46:24.871Z,26.60
2018-06-20T20:48:52.493Z,26.52
2018-06-20T20:51:20.610Z,26.49
2018-06-20T20:53:48.202Z,26.53
2018-06-20T20:56:15.734Z,26.61
2018-06-20T20:58:43.360Z,26.62
2018-06-20T21:01:10.891Z,26.57
2018-06-20T21:03:38.465Z,26.54
2018-06-20T21:06:06.086Z,26.51
2018-06-20T21:08:33.590Z,26.54
2018-06-20T21:11:01.122Z,26.51
2018-06-20T21:13:28.717Z,26.47
2018-06-20T21:15:56.278Z,26.44
2018-06-20T21:18:23.801Z,26.40
2018-06-20T21:20:51.491Z,26.35
2018-06-20T21:23:19.216Z,26.29
2018-06-20T21:25:46.763Z,26.22
2018-06-20T21:28:14.418Z,26.17
2018-06-20T21:30:41.963Z,26.19
2018-06-20T21:33:09.502Z,26.18
2018-06-20T21:35:37.099Z,26.17
2018-06-20T21:38:06.019Z,26.18
2018-06-20T21:40:33.719Z,26.22
2018-06-20T21:43:01.280Z,26.06
2018-06-20T21:45:28.848Z,25.99
2018-06-20T21:47:56.423Z,25.90
2018-06-20T21:50:24.016Z,25.85
2018-06-20T21:52:51.805Z,25.77
2018-06-20T21:55:19.355Z,25.73
2018-06-20T21:57:46.891Z,25.48
2018-06-20T22:00:14.422Z,25.46
2018-06-20T22:02:41.946Z,25.49
2018-06-20T22:05:09.605Z,25.47
2018-06-20T22:07:37.596Z,25.46
2018-06-20T22:10:05.557Z,25.38
2018-06-20T22:12:33.283Z,25.31
2018-06-20T22:15:01.376Z,25.35
2018-06-20T22:17:28.987Z,25.32
2018-06-20T22:19:56.619Z,25.35
2018-06-20T22:22:24.415Z,25.32
2018-06-20T22:24:53.146Z,25.26
2018-06-20T22:27:21.020Z,25.19
2018-06-20T22:29:48.576Z,25.15
2018-06-20T22:32:16.124Z,25.10
2018-06-20T22:34:43.869Z,25.15
2018-06-20T22:37:11.436Z,25.11
2018-06-20T22:39:38.974Z,25.00
2018-06-20T22:42:06.523Z,24.97
2018-06-20T22:44:34.034Z,24.95
2018-06-20T22:47:01.624Z,24.92
2018-06-20T22:49:29.211Z,24.83
2018-06-20T22:51:56.726Z,24.84
2018-06-20T22:54:24.358Z,24.86
2018-06-20T22:56:51.965Z,24.78
2018-06-20T22:59:19.491Z,24.81
2018-06-20T23:01:47.013Z,24.70
2018-06-20T23:04:14.548Z,24.63
2018-06-20T23:06:42.060Z,24.67
2018-06-20T23:09:10.425Z,24.65
2018-06-20T23:11:43.492Z,24.61
2018-06-20T23:14:11.114Z,24.64
2018-06-20T23:16:38.846Z,24.59
2018-06-20T23:19:06.735Z,24.62
2018-06-20T23:21:34.278Z,24.57
2018-06-20T23:24:01.798Z,24.52
2018-06-20T23:26:29.366Z,24.41
2018-06-20T23:28:57.174Z,24.47
2018-06-20T23:31:24.674Z,24.41
2018-06-20T23:33:52.322Z,24.37
2018-06-20T23:36:19.867Z,24.36
2018-06-20T23:38:47.397Z,24.31
2018-06-20T23:41:14.959Z,24.24
2018-06-20T23:43:43.104Z,24.21
2018-06-20T23:46:10.654Z,24.15
2018-06-20T23:48:38.234Z,24.13
2018-06-20T23:51:05.883Z,24.11
2018-06-20T23:53:33.426Z,24.07
2018-06-20T23:56:00.990Z,24.07
2018-06-20T23:58:28.547Z,24.00
